createdAt,value
2023-05-15T00:00:10.680Z,97798.00
2023-05-15T00:01:18.678Z,97800.78
2023-05-15T00:02:21.016Z,97789.47
2023-05-15T00:03:23.995Z,97792.09
2023-05-15T00:04:26.655Z,97796.34
2023-05-15T00:05:30.030Z,97787.53
2023-05-15T00:06:33.244Z,97784.06
2023-05-15T00:07:36.884Z,97784.91
2023-05-15T00:08:38.733Z,97784.25
2023-05-15T00:09:42.162Z,97768.53
2023-05-15T00:10:57.501Z,97776.41
2023-05-15T00:12:04.036Z,97769.34
2023-05-15T00:13:06.153Z,97773.78
2023-05-15T00:14:09.046Z,97771.16
2023-05-15T00:15:11.246Z,97767.72
2023-05-15T00:16:14.048Z,97783.44
2023-05-15T00:17:16.506Z,97781.63
2023-05-15T00:18:19.421Z,97772.97
2023-05-15T00:19:21.567Z,97770.16
2023-05-15T00:20:24.336Z,97760.69
2023-05-15T00:21:26.289Z,97756.44
2023-05-15T00:22:30.594Z,97755.44
2023-05-15T00:23:32.333Z,97758.25
2023-05-15T00:24:35.114Z,97755.63
2023-05-15T00:25:36.924Z,97766.91
2023-05-15T00:26:39.642Z,97764.28
2023-05-15T00:27:41.469Z,97763.47
2023-05-15T00:28:44.276Z,97756.59
2023-05-15T00:29:46.048Z,97761.84
2023-05-15T00:30:48.832Z,97756.75
2023-05-15T00:31:50.788Z,97754.81
2023-05-15T00:32:53.656Z,97754.81
2023-05-15T00:33:55.474Z,97753.00
2023-05-15T00:34:58.231Z,97754.81
2023-05-15T00:36:00.014Z,97745.16
2023-05-15T00:37:02.957Z,97751.50
2023-05-15T00:38:08.002Z,97748.91
2023-05-15T00:39:13.085Z,97745.47
2023-05-15T00:40:21.871Z,97741.84
2023-05-15T00:41:26.161Z,97740.22
2023-05-15T00:42:28.376Z,97735.81
2023-05-15T00:43:32.806Z,97727.31
2023-05-15T00:44:34.843Z,97734.19
2023-05-15T00:45:37.805Z,97734.19
2023-05-15T00:46:40.196Z,97726.31
2023-05-15T00:47:43.545Z,97722.06
2023-05-15T00:48:46.749Z,97722.25
2023-05-15T00:49:50.726Z,97719.63
2023-05-15T00:50:54.814Z,97718.81
2023-05-15T00:51:58.101Z,97715.34
2023-05-15T00:53:00.855Z,97718.81
2023-05-15T00:54:05.373Z,97715.34
2023-05-15T00:55:07.877Z,97714.53
2023-05-15T00:56:12.487Z,97714.53
2023-05-15T00:57:15.819Z,97711.09
2023-05-15T00:58:19.495Z,97712.75
2023-05-15T00:59:22.955Z,97708.16
2023-05-15T01:00:26.185Z,97716.84
2023-05-15T01:01:33.237Z,97711.59
2023-05-15T01:02:36.319Z,97710.63
2023-05-15T01:03:38.276Z,97704.38
2023-05-15T01:04:41.042Z,97711.28
2023-05-15T01:05:43.231Z,97698.19
2023-05-15T01:06:45.991Z,97698.34
2023-05-15T01:07:52.428Z,97696.53
2023-05-15T01:08:57.815Z,97688.84
2023-05-15T01:10:01.180Z,97693.28
2023-05-15T01:11:05.390Z,97686.41
2023-05-15T01:12:08.173Z,97695.25
2023-05-15T01:13:11.142Z,97696.88
2023-05-15T01:14:12.976Z,97694.28
2023-05-15T01:15:15.755Z,97697.88
2023-05-15T01:16:21.380Z,97693.59
2023-05-15T01:17:24.117Z,97702.25
2023-05-15T01:18:31.980Z,97707.50
2023-05-15T01:19:35.729Z,97702.13
2023-05-15T01:20:47.362Z,97694.28
2023-05-15T01:22:11.676Z,97697.69
2023-05-15T01:23:17.784Z,97693.59
2023-05-15T01:24:36.075Z,97694.41
2023-05-15T01:26:13.053Z,97692.78
2023-05-15T01:27:19.383Z,97697.19
2023-05-15T01:28:28.854Z,97693.78
2023-05-15T01:30:00.528Z,97701.44
2023-05-15T01:31:06.898Z,97695.56
2023-05-15T01:32:17.794Z,97698.19
2023-05-15T01:33:23.259Z,97694.59
2023-05-15T01:34:32.963Z,97690.97
2023-05-15T01:35:39.130Z,97685.75
2023-05-15T01:36:46.939Z,97692.63
2023-05-15T01:37:51.348Z,97690.03
2023-05-15T01:38:55.700Z,97686.41
2023-05-15T01:40:00.854Z,97689.84
2023-05-15T01:41:08.052Z,97693.28
2023-05-15T01:42:11.054Z,97694.91
2023-05-15T01:43:19.785Z,97690.34
2023-05-15T01:44:26.729Z,97685.09
2023-05-15T01:45:30.011Z,97684.94
2023-05-15T01:46:32.036Z,97688.38
2023-05-15T01:47:38.183Z,97678.69
2023-05-15T01:48:40.993Z,97677.88
2023-05-15T01:49:44.674Z,97675.91
2023-05-15T01:50:51.119Z,97675.91
2023-05-15T01:51:57.219Z,97673.28
2023-05-15T01:53:01.148Z,97678.53
2023-05-15T01:54:04.973Z,97677.88
2023-05-15T01:55:09.265Z,97675.28
2023-05-15T01:56:13.920Z,97672.81
2023-05-15T01:57:16.817Z,97673.66
2023-05-15T01:58:21.987Z,97664.97
2023-05-15T01:59:25.513Z,97674.63
2023-05-15T02:00:28.337Z,97672.97
2023-05-15T02:01:31.079Z,97676.41
2023-05-15T02:02:34.297Z,97671.34
2023-05-15T02:03:36.698Z,97666.78
2023-05-15T02:04:39.760Z,97656.31
2023-05-15T02:05:42.071Z,97660.56
2023-05-15T02:06:45.258Z,97650.09
2023-05-15T02:07:47.543Z,97649.28
2023-05-15T02:08:52.248Z,97648.44
2023-05-15T02:09:55.838Z,97652.84
2023-05-15T02:11:00.509Z,97654.50
2023-05-15T02:12:02.800Z,97657.94
2023-05-15T02:13:26.345Z,97651.06
2023-05-15T02:14:29.992Z,97656.44
2023-05-15T02:15:33.292Z,97655.63
2023-05-15T02:16:35.755Z,97646.97
2023-05-15T02:17:38.717Z,97647.78
2023-05-15T02:18:41.513Z,97645.97
2023-05-15T02:19:44.799Z,97649.41
2023-05-15T02:20:46.651Z,97653.03
2023-05-15T02:21:49.590Z,97649.59
2023-05-15T02:22:51.386Z,97644.19
2023-05-15T02:23:54.165Z,97641.56
2023-05-15T02:24:56.342Z,97641.72
2023-05-15T02:26:15.722Z,97651.22
2023-05-15T02:27:21.503Z,97643.53
2023-05-15T02:28:30.105Z,97633.69
2023-05-15T02:29:38.500Z,97632.88
2023-05-15T02:30:45.751Z,97637.13
2023-05-15T02:31:54.067Z,97633.88
2023-05-15T02:33:00.984Z,97636.50
2023-05-15T02:34:11.061Z,97636.31
2023-05-15T02:35:18.425Z,97634.69
2023-05-15T02:36:21.962Z,97626.84
2023-05-15T02:37:28.635Z,97622.28
2023-05-15T02:38:34.386Z,97625.53
2023-05-15T02:39:37.133Z,97623.53
2023-05-15T02:40:40.877Z,97619.97
2023-05-15T02:41:43.495Z,97621.59
2023-05-15T02:42:47.585Z,97623.22
2023-05-15T02:43:52.249Z,97625.03
2023-05-15T02:44:55.648Z,97625.84
2023-05-15T02:45:59.676Z,97617.16
2023-05-15T02:47:03.969Z,97622.41
2023-05-15T02:48:15.888Z,97619.78
2023-05-15T02:49:18.847Z,97617.34
2023-05-15T02:50:21.611Z,97623.41
2023-05-15T02:51:24.569Z,97625.19
2023-05-15T02:52:26.649Z,97620.78
2023-05-15T02:53:29.708Z,97620.59
2023-05-15T02:54:31.870Z,97624.84
2023-05-15T02:55:35.269Z,97622.22
2023-05-15T02:56:37.497Z,97625.84
2023-05-15T02:57:40.350Z,97623.22
2023-05-15T02:58:42.280Z,97620.59
2023-05-15T02:59:46.931Z,97618.78
2023-05-15T03:00:48.864Z,97621.25
2023-05-15T03:01:52.298Z,97618.63
2023-05-15T03:02:54.266Z,97618.47
2023-05-15T03:03:57.081Z,97615.69
2023-05-15T03:04:59.010Z,97618.94
2023-05-15T03:06:01.982Z,97618.78
2023-05-15T03:07:04.252Z,97613.38
2023-05-15T03:08:07.404Z,97610.75
2023-05-15T03:09:09.429Z,97614.19
2023-05-15T03:10:12.189Z,97602.09
2023-05-15T03:11:14.385Z,97596.03
2023-05-15T03:12:17.493Z,97607.16
2023-05-15T03:13:19.252Z,97605.34
2023-05-15T03:14:21.998Z,97603.53
2023-05-15T03:15:25.348Z,97600.91
2023-05-15T03:16:28.777Z,97602.56
2023-05-15T03:17:30.828Z,97593.72
2023-05-15T03:18:33.852Z,97603.38
2023-05-15T03:19:35.994Z,97592.09
2023-05-15T03:20:38.829Z,97593.88
2023-05-15T03:21:40.683Z,97587.66
2023-05-15T03:22:43.727Z,97589.47
2023-05-15T03:23:45.681Z,97596.66
2023-05-15T03:24:49.039Z,97595.66
2023-05-15T03:25:51.010Z,97597.34
2023-05-15T03:26:54.005Z,97601.09
2023-05-15T03:27:55.992Z,97608.13
2023-05-15T03:28:59.321Z,97597.66
2023-05-15T03:30:01.487Z,97609.13
2023-05-15T03:31:05.814Z,97601.28
2023-05-15T03:32:07.648Z,97604.69
2023-05-15T03:33:10.557Z,97601.28
2023-05-15T03:34:12.334Z,97601.28
2023-05-15T03:35:15.070Z,97606.50
2023-05-15T03:36:17.847Z,97601.41
2023-05-15T03:37:19.628Z,97603.41
2023-05-15T03:38:22.364Z,97602.59
2023-05-15T03:39:24.192Z,97604.41
2023-05-15T03:40:26.993Z,97602.75
2023-05-15T03:41:28.736Z,97599.34
2023-05-15T03:42:31.465Z,97606.19
2023-05-15T03:43:33.273Z,97607.19
2023-05-15T03:44:36.039Z,97600.28
2023-05-15T03:45:38.980Z,97600.28
2023-05-15T03:46:43.127Z,97597.03
2023-05-15T03:47:46.254Z,97594.41
2023-05-15T03:48:49.176Z,97598.66
2023-05-15T03:49:50.959Z,97600.47
2023-05-15T03:50:53.840Z,97594.25
2023-05-15T03:51:56.506Z,97590.00
2023-05-15T03:52:59.243Z,97589.81
2023-05-15T03:54:01.133Z,97592.28
2023-05-15T03:55:06.837Z,97585.06
2023-05-15T03:56:08.594Z,97587.38
2023-05-15T03:57:11.530Z,97582.94
2023-05-15T03:58:13.322Z,97591.44
2023-05-15T03:59:16.081Z,97579.97
2023-05-15T04:00:19.169Z,97575.53
2023-05-15T04:01:23.685Z,97578.16
2023-05-15T04:02:26.828Z,97583.41
2023-05-15T04:03:29.674Z,97574.72
2023-05-15T04:04:31.606Z,97587.00
2023-05-15T04:05:34.356Z,97569.84
2023-05-15T04:06:36.104Z,97571.47
2023-05-15T04:07:39.146Z,97567.06
2023-05-15T04:08:41.642Z,97561.00
2023-05-15T04:09:44.529Z,97561.00
2023-05-15T04:10:46.337Z,97561.81
2023-05-15T04:11:49.036Z,97553.13
2023-05-15T04:12:51.848Z,97553.13
2023-05-15T04:13:54.634Z,97554.94
2023-05-15T04:14:56.576Z,97553.13
2023-05-15T04:15:59.850Z,97562.63
2023-05-15T04:17:01.762Z,97565.06
2023-05-15T04:18:06.323Z,97559.69
2023-05-15T04:19:08.171Z,97564.09
2023-05-15T04:20:12.160Z,97560.66
2023-05-15T04:21:13.890Z,97564.25
2023-05-15T04:22:16.588Z,97560.81
2023-05-15T04:23:18.415Z,97564.25
2023-05-15T04:24:21.175Z,97559.00
2023-05-15T04:25:24.448Z,97570.97
2023-05-15T04:26:27.394Z,97566.72
2023-05-15T04:27:29.230Z,97560.66
2023-05-15T04:28:32.429Z,97554.59
2023-05-15T04:29:34.219Z,97562.94
2023-05-15T04:30:36.961Z,97558.50
2023-05-15T04:31:38.768Z,97560.31
2023-05-15T04:32:42.372Z,97563.75
2023-05-15T04:33:45.514Z,97564.56
2023-05-15T04:34:48.390Z,97554.06
2023-05-15T04:35:50.791Z,97553.13
2023-05-15T04:36:53.498Z,97559.97
2023-05-15T04:37:55.247Z,97549.97
2023-05-15T04:38:57.985Z,97548.63
2023-05-15T04:39:59.706Z,97553.34
2023-05-15T04:41:02.445Z,97553.19
2023-05-15T04:42:05.062Z,97554.84
2023-05-15T04:43:08.265Z,97551.38
2023-05-15T04:44:10.113Z,97542.69
2023-05-15T04:45:13.037Z,97539.28
2023-05-15T04:46:14.892Z,97542.69
2023-05-15T04:47:17.668Z,97532.22
2023-05-15T04:48:19.503Z,97535.50
2023-05-15T04:49:23.575Z,97531.56
2023-05-15T04:50:25.893Z,97524.16
2023-05-15T04:51:28.880Z,97524.81
2023-05-15T04:52:30.812Z,97512.34
2023-05-15T04:53:33.556Z,97517.41
2023-05-15T04:54:35.427Z,97513.44
2023-05-15T04:55:38.140Z,97517.34
2023-05-15T04:56:39.969Z,97519.44
2023-05-15T04:57:42.695Z,97523.34
2023-05-15T04:58:44.434Z,97527.09
2023-05-15T04:59:47.145Z,97516.09
2023-05-15T05:00:49.898Z,97522.44
2023-05-15T05:01:51.787Z,97526.19
2023-05-15T05:02:54.664Z,97522.03
2023-05-15T05:03:56.541Z,97530.00
2023-05-15T05:05:00.612Z,97532.56
2023-05-15T05:06:02.403Z,97531.84
2023-05-15T05:07:05.897Z,97534.75
2023-05-15T05:08:07.650Z,97540.63
2023-05-15T05:09:10.690Z,97537.66
2023-05-15T05:10:13.663Z,97537.66
2023-05-15T05:11:16.364Z,97536.47
2023-05-15T05:12:18.230Z,97538.28
2023-05-15T05:13:20.980Z,97541.09
2023-05-15T05:14:22.799Z,97535.22
2023-05-15T05:15:25.775Z,97541.28
2023-05-15T05:16:27.890Z,97540.47
2023-05-15T05:17:30.905Z,97538.81
2023-05-15T05:18:32.682Z,97543.25
2023-05-15T05:19:35.479Z,97533.75
2023-05-15T05:20:38.559Z,97528.31
2023-05-15T05:21:41.253Z,97525.88
2023-05-15T05:22:43.141Z,97525.06
2023-05-15T05:23:47.186Z,97521.63
2023-05-15T05:24:48.933Z,97526.69
2023-05-15T05:25:51.666Z,97524.34
2023-05-15T05:26:54.484Z,97518.91
2023-05-15T05:27:57.305Z,97515.94
2023-05-15T05:28:59.104Z,97521.19
2023-05-15T05:30:03.288Z,97525.44
2023-05-15T05:31:05.310Z,97520.38
2023-05-15T05:32:08.664Z,97521.38
2023-05-15T05:33:10.781Z,97523.19
2023-05-15T05:34:13.677Z,97522.38
2023-05-15T05:35:15.475Z,97527.63
2023-05-15T05:36:19.612Z,97527.16
2023-05-15T05:37:21.376Z,97519.31
2023-05-15T05:38:24.723Z,97516.69
2023-05-15T05:39:26.498Z,97526.78
2023-05-15T05:40:29.249Z,97520.56
2023-05-15T05:41:31.131Z,97519.19
2023-05-15T05:42:33.879Z,97520.13
2023-05-15T05:43:35.894Z,97513.69
2023-05-15T05:44:38.739Z,97516.44
2023-05-15T05:45:41.548Z,97518.69
2023-05-15T05:46:43.441Z,97515.06
2023-05-15T05:47:46.724Z,97509.47
2023-05-15T05:48:48.542Z,97508.47
2023-05-15T05:49:51.319Z,97510.75
2023-05-15T05:50:53.158Z,97512.00
2023-05-15T05:51:57.330Z,97504.56
2023-05-15T05:52:59.126Z,97505.66
2023-05-15T05:54:01.959Z,97504.09
2023-05-15T05:55:05.129Z,97501.31
2023-05-15T05:56:08.315Z,97505.75
2023-05-15T05:57:10.142Z,97517.06
2023-05-15T05:58:24.083Z,97505.56
2023-05-15T05:59:27.126Z,97506.56
2023-05-15T06:00:30.249Z,97501.31
2023-05-15T06:01:32.150Z,97503.94
2023-05-15T06:02:34.967Z,97495.88
2023-05-15T06:03:38.125Z,97498.31
2023-05-15T06:04:41.104Z,97492.91
2023-05-15T06:05:42.828Z,97498.75
2023-05-15T06:06:46.184Z,97491.50
2023-05-15T06:07:50.651Z,97486.09
2023-05-15T06:08:54.896Z,97485.53
2023-05-15T06:09:59.184Z,97480.72
2023-05-15T06:11:01.074Z,97484.28
2023-05-15T06:12:04.801Z,97491.22
2023-05-15T06:13:06.612Z,97491.75
2023-05-15T06:14:09.480Z,97491.00
2023-05-15T06:15:13.063Z,97490.25
2023-05-15T06:16:14.876Z,97499.22
2023-05-15T06:17:17.647Z,97488.94
2023-05-15T06:18:19.435Z,97490.19
2023-05-15T06:19:22.764Z,97486.56
2023-05-15T06:20:25.035Z,97498.88
2023-05-15T06:21:27.953Z,97488.56
2023-05-15T06:22:32.265Z,97489.94
2023-05-15T06:23:36.335Z,97487.06
2023-05-15T06:24:38.124Z,97492.16
2023-05-15T06:25:41.108Z,97489.94
2023-05-15T06:26:42.854Z,97481.06
2023-05-15T06:27:45.574Z,97483.13
2023-05-15T06:28:47.403Z,97485.19
2023-05-15T06:29:50.115Z,97484.44
2023-05-15T06:30:52.316Z,97477.00
2023-05-15T06:31:55.092Z,97478.88
2023-05-15T06:32:56.975Z,97476.06
2023-05-15T06:33:59.772Z,97470.81
2023-05-15T06:35:01.627Z,97469.59
2023-05-15T06:36:04.654Z,97475.31
2023-05-15T06:37:06.434Z,97468.47
2023-05-15T06:38:09.236Z,97473.56
2023-05-15T06:39:12.349Z,97469.81
2023-05-15T06:40:15.234Z,97471.50
2023-05-15T06:41:17.075Z,97476.19
2023-05-15T06:42:20.390Z,97472.56
2023-05-15T06:43:22.228Z,97479.25
2023-05-15T06:44:25.710Z,97477.31
2023-05-15T06:45:29.165Z,97471.69
2023-05-15T06:46:32.105Z,97472.75
2023-05-15T06:47:35.011Z,97471.13
2023-05-15T06:48:36.885Z,97473.31
2023-05-15T06:49:39.780Z,97474.09
2023-05-15T06:50:41.594Z,97475.69
2023-05-15T06:51:44.404Z,97484.59
2023-05-15T06:52:46.178Z,97478.69
2023-05-15T06:53:48.997Z,97478.09
2023-05-15T06:54:52.593Z,97481.28
2023-05-15T06:55:55.361Z,97481.28
2023-05-15T06:56:58.206Z,97474.19
2023-05-15T06:58:00.100Z,97472.81
2023-05-15T06:59:02.857Z,97470.41
2023-05-15T07:00:06.987Z,97471.84
2023-05-15T07:01:09.027Z,97478.94
2023-05-15T07:02:12.127Z,97473.88
2023-05-15T07:03:16.648Z,97475.69
2023-05-15T07:04:18.606Z,97481.34
2023-05-15T07:05:21.842Z,97478.97
2023-05-15T07:06:23.969Z,97481.81
2023-05-15T07:07:26.808Z,97487.94
2023-05-15T07:08:29.548Z,97484.44
2023-05-15T07:09:31.449Z,97487.63
2023-05-15T07:10:35.718Z,97487.41
2023-05-15T07:11:38.829Z,97490.59
2023-05-15T07:12:41.813Z,97488.91
2023-05-15T07:13:43.890Z,97489.84
2023-05-15T07:14:46.698Z,97487.97
2023-05-15T07:15:48.580Z,97486.56
2023-05-15T07:16:51.455Z,97491.19
2023-05-15T07:17:54.579Z,97487.75
2023-05-15T07:18:56.555Z,97491.38
2023-05-15T07:19:59.359Z,97487.56
2023-05-15T07:21:02.561Z,97481.09
2023-05-15T07:22:06.068Z,97480.91
2023-05-15T07:23:08.031Z,97483.38
2023-05-15T07:24:10.837Z,97479.72
2023-05-15T07:25:14.550Z,97475.47
2023-05-15T07:26:27.925Z,97474.06
2023-05-15T07:27:34.209Z,97473.06
2023-05-15T07:28:37.581Z,97468.88
2023-05-15T07:29:39.358Z,97474.19
2023-05-15T07:30:42.371Z,97471.81
2023-05-15T07:31:44.731Z,97472.84
2023-05-15T07:32:47.852Z,97476.94
2023-05-15T07:33:49.801Z,97476.94
2023-05-15T07:34:53.441Z,97475.13
2023-05-15T07:35:55.230Z,97480.16
2023-05-15T07:36:58.021Z,97479.59
2023-05-15T07:37:59.948Z,97477.16
2023-05-15T07:39:02.893Z,97478.97
2023-05-15T07:40:06.171Z,97477.53
2023-05-15T07:41:09.035Z,97478.16
2023-05-15T07:42:12.583Z,97482.59
2023-05-15T07:43:15.336Z,97476.94
2023-05-15T07:44:17.266Z,97476.72
2023-05-15T07:45:20.274Z,97486.63
2023-05-15T07:46:22.187Z,97481.31
2023-05-15T07:47:25.513Z,97485.69
2023-05-15T07:48:27.372Z,97483.91
2023-05-15T07:49:31.314Z,97486.19
2023-05-15T07:50:33.510Z,97480.31
2023-05-15T07:51:36.438Z,97490.47
2023-05-15T07:52:38.209Z,97484.38
2023-05-15T07:53:41.179Z,97484.59
2023-05-15T07:54:44.386Z,97489.66
2023-05-15T07:55:46.454Z,97489.25
2023-05-15T07:56:49.267Z,97487.63
2023-05-15T07:57:54.110Z,97493.47
2023-05-15T07:58:57.900Z,97485.16
2023-05-15T08:00:02.448Z,97485.34
2023-05-15T08:01:14.471Z,97484.34
2023-05-15T08:02:16.367Z,97498.94
2023-05-15T08:03:19.455Z,97494.47
2023-05-15T08:04:22.450Z,97500.38
2023-05-15T08:05:24.814Z,97493.09
2023-05-15T08:06:28.051Z,97495.13
2023-05-15T08:07:31.333Z,97493.88
2023-05-15T08:08:34.182Z,97497.06
2023-05-15T08:09:36.996Z,97501.69
2023-05-15T08:10:38.792Z,97497.41
2023-05-15T08:11:41.602Z,97497.59
2023-05-15T08:12:46.487Z,97498.19
2023-05-15T08:13:50.762Z,97500.75
2023-05-15T08:14:53.731Z,97504.97
2023-05-15T08:15:56.643Z,97503.72
2023-05-15T08:16:58.552Z,97509.34
2023-05-15T08:18:01.671Z,97501.66
2023-05-15T08:19:05.618Z,97505.66
2023-05-15T08:20:09.386Z,97497.50
2023-05-15T08:21:11.289Z,97505.97
2023-05-15T08:22:14.098Z,97494.59
2023-05-15T08:23:15.920Z,97507.47
2023-05-15T08:24:18.695Z,97509.91
2023-05-15T08:25:20.694Z,97508.94
2023-05-15T08:26:23.751Z,97501.06
2023-05-15T08:27:26.896Z,97509.56
2023-05-15T08:28:29.901Z,97509.56
2023-05-15T08:29:33.186Z,97500.84
2023-05-15T08:30:36.187Z,97504.50
2023-05-15T08:31:39.084Z,97510.72
2023-05-15T08:32:42.976Z,97507.47
2023-05-15T08:33:44.738Z,97505.06
2023-05-15T08:34:47.497Z,97507.03
2023-05-15T08:35:50.478Z,97509.84
2023-05-15T08:36:52.971Z,97504.41
2023-05-15T08:37:55.765Z,97509.31
2023-05-15T08:38:57.566Z,97507.28
2023-05-15T08:40:00.354Z,97508.75
2023-05-15T08:41:08.376Z,97508.75
2023-05-15T08:42:16.026Z,97509.56
2023-05-15T08:43:18.315Z,97510.13
2023-05-15T08:44:22.388Z,97513.28
2023-05-15T08:45:26.269Z,97509.41
2023-05-15T08:46:29.650Z,97514.50
2023-05-15T08:47:32.382Z,97512.50
2023-05-15T08:48:38.186Z,97511.06
2023-05-15T08:49:47.487Z,97504.91
2023-05-15T08:50:49.848Z,97512.53
2023-05-15T08:51:53.149Z,97510.47
2023-05-15T08:52:58.391Z,97512.13
2023-05-15T08:54:00.584Z,97519.59
2023-05-15T08:55:04.321Z,97506.72
2023-05-15T08:56:07.391Z,97509.97
2023-05-15T08:57:09.848Z,97508.19
2023-05-15T08:58:13.111Z,97510.81
2023-05-15T08:59:14.886Z,97508.53
2023-05-15T09:00:20.938Z,97505.72
2023-05-15T09:01:25.232Z,97502.72
2023-05-15T09:02:27.115Z,97497.47
2023-05-15T09:03:30.131Z,97505.34
2023-05-15T09:04:33.477Z,97502.34
2023-05-15T09:05:37.368Z,97501.97
2023-05-15T09:06:42.119Z,97498.34
2023-05-15T09:07:46.291Z,97505.88
2023-05-15T09:08:49.568Z,97508.53
2023-05-15T09:09:51.583Z,97509.25
2023-05-15T09:10:54.427Z,97515.38
2023-05-15T09:11:56.433Z,97509.75
2023-05-15T09:13:00.453Z,97516.44
2023-05-15T09:14:02.203Z,97510.00
2023-05-15T09:15:12.513Z,97508.16
2023-05-15T09:16:14.370Z,97507.72
2023-05-15T09:17:18.566Z,97510.75
2023-05-15T09:18:21.418Z,97515.38
2023-05-15T09:19:23.286Z,97514.56
2023-05-15T09:20:28.654Z,97516.97
2023-05-15T09:21:31.467Z,97517.78
2023-05-15T09:22:35.571Z,97524.50
2023-05-15T09:23:38.276Z,97518.88
2023-05-15T09:24:40.046Z,97525.53
2023-05-15T09:25:44.767Z,97516.19
2023-05-15T09:26:48.010Z,97516.44
2023-05-15T09:27:50.795Z,97514.59
2023-05-15T09:28:58.357Z,97517.22
2023-05-15T09:30:10.137Z,97519.50
2023-05-15T09:31:13.088Z,97515.91
2023-05-15T09:32:16.419Z,97520.69
2023-05-15T09:33:28.696Z,97526.00
2023-05-15T09:34:31.293Z,97518.97
2023-05-15T09:35:35.128Z,97516.34
2023-05-15T09:36:43.891Z,97511.28
2023-05-15T09:37:45.796Z,97518.59
2023-05-15T09:38:49.727Z,97512.94
2023-05-15T09:39:51.642Z,97511.31
2023-05-15T09:41:02.777Z,97507.69
2023-05-15T09:42:08.976Z,97512.78
2023-05-15T09:43:12.703Z,97510.53
2023-05-15T09:44:26.034Z,97513.41
2023-05-15T09:45:30.122Z,97513.84
2023-05-15T09:46:35.784Z,97516.28
2023-05-15T09:47:38.939Z,97513.47
2023-05-15T09:48:43.882Z,97519.56
2023-05-15T09:49:46.817Z,97527.25
2023-05-15T09:50:48.768Z,97518.34
2023-05-15T09:51:51.795Z,97526.44
2023-05-15T09:52:53.842Z,97522.19
2023-05-15T09:53:56.771Z,97533.31
2023-05-15T09:54:59.581Z,97538.66
2023-05-15T09:56:03.481Z,97538.69
2023-05-15T09:57:09.449Z,97536.66
2023-05-15T09:58:16.716Z,97534.69
2023-05-15T09:59:21.640Z,97544.00
2023-05-15T10:00:24.001Z,97544.81
2023-05-15T10:01:27.578Z,97542.81
2023-05-15T10:02:32.580Z,97543.41
2023-05-15T10:03:35.521Z,97538.97
2023-05-15T10:04:38.841Z,97539.56
2023-05-15T10:05:43.522Z,97544.47
2023-05-15T10:06:48.039Z,97532.53
2023-05-15T10:07:54.399Z,97535.41
2023-05-15T10:08:57.738Z,97540.47
2023-05-15T10:10:00.256Z,97538.63
2023-05-15T10:11:04.591Z,97544.91
2023-05-15T10:12:09.499Z,97555.66
2023-05-15T10:13:12.642Z,97550.53
2023-05-15T10:14:15.827Z,97551.91
2023-05-15T10:15:18.186Z,97550.50
2023-05-15T10:16:22.389Z,97555.38
2023-05-15T10:17:24.816Z,97551.34
2023-05-15T10:18:29.784Z,97556.22
2023-05-15T10:19:32.741Z,97548.47
2023-05-15T10:20:36.383Z,97555.81
2023-05-15T10:21:40.403Z,97550.78
2023-05-15T10:22:46.451Z,97555.66
2023-05-15T10:23:51.064Z,97548.56
2023-05-15T10:24:58.702Z,97548.38
2023-05-15T10:26:04.127Z,97549.00
2023-05-15T10:27:06.805Z,97545.53
2023-05-15T10:28:11.230Z,97554.28
2023-05-15T10:29:15.507Z,97553.25
2023-05-15T10:30:17.492Z,97561.97
2023-05-15T10:31:21.343Z,97551.63
2023-05-15T10:32:24.345Z,97550.78
2023-05-15T10:33:27.804Z,97554.66
2023-05-15T10:34:30.923Z,97555.03
2023-05-15T10:35:35.163Z,97564.75
2023-05-15T10:36:38.743Z,97567.59
2023-05-15T10:37:41.682Z,97564.72
2023-05-15T10:38:43.994Z,97566.50
2023-05-15T10:39:47.300Z,97555.75
2023-05-15T10:40:49.667Z,97560.56
2023-05-15T10:41:52.375Z,97573.50
2023-05-15T10:42:56.539Z,97570.44
2023-05-15T10:44:00.406Z,97571.00
2023-05-15T10:45:03.133Z,97569.13
2023-05-15T10:46:06.424Z,97569.91
2023-05-15T10:47:09.613Z,97570.09
2023-05-15T10:48:12.367Z,97564.03
2023-05-15T10:49:15.675Z,97561.41
2023-05-15T10:50:19.287Z,97559.94
2023-05-15T10:51:25.366Z,97553.66
2023-05-15T10:52:29.514Z,97552.50
2023-05-15T10:53:32.623Z,97547.47
2023-05-15T10:54:36.063Z,97544.06
2023-05-15T10:55:39.143Z,97541.06
2023-05-15T10:56:43.224Z,97540.44
2023-05-15T10:57:45.875Z,97547.97
2023-05-15T10:58:49.558Z,97548.34
2023-05-15T10:59:52.445Z,97557.03
2023-05-15T11:00:55.225Z,97558.16
2023-05-15T11:01:57.048Z,97554.88
2023-05-15T11:03:00.990Z,97560.28
2023-05-15T11:04:08.026Z,97552.66
2023-05-15T11:05:12.178Z,97554.44
2023-05-15T11:06:14.006Z,97549.28
2023-05-15T11:07:18.186Z,97545.59
2023-05-15T11:08:27.713Z,97545.81
2023-05-15T11:09:37.708Z,97539.34
2023-05-15T11:10:39.584Z,97541.81
2023-05-15T11:11:56.907Z,97541.03
2023-05-15T11:13:00.299Z,97536.22
2023-05-15T11:14:14.640Z,97544.97
2023-05-15T11:15:21.941Z,97539.63
2023-05-15T11:16:58.133Z,97534.53
2023-05-15T11:18:04.956Z,97529.88
2023-05-15T11:19:22.908Z,97535.50
2023-05-15T11:20:35.048Z,97534.19
2023-05-15T11:21:46.248Z,97530.03
2023-05-15T11:22:59.240Z,97535.34
2023-05-15T11:24:05.630Z,97530.88
2023-05-15T11:25:10.321Z,97525.00
2023-05-15T11:26:13.718Z,97527.41
2023-05-15T11:27:19.184Z,97518.63
2023-05-15T11:28:23.026Z,97531.81
2023-05-15T11:29:24.807Z,97528.53
2023-05-15T11:30:36.916Z,97520.78
2023-05-15T11:31:38.874Z,97526.91
2023-05-15T11:32:52.482Z,97524.47
2023-05-15T11:33:55.425Z,97514.97
2023-05-15T11:35:00.053Z,97522.47
2023-05-15T11:36:06.058Z,97515.97
2023-05-15T11:37:11.154Z,97520.41
2023-05-15T11:38:16.252Z,97517.16
2023-05-15T11:39:24.252Z,97519.78
2023-05-15T11:40:28.521Z,97511.88
2023-05-15T11:41:32.799Z,97506.22
2023-05-15T11:42:34.696Z,97519.69
2023-05-15T11:43:37.458Z,97507.28
2023-05-15T11:44:40.782Z,97504.88
2023-05-15T11:45:43.643Z,97516.47
2023-05-15T11:46:47.246Z,97520.16
2023-05-15T11:47:49.729Z,97516.66
2023-05-15T11:48:52.928Z,97526.19
2023-05-15T11:49:54.880Z,97520.13
2023-05-15T11:50:57.714Z,97516.47
2023-05-15T11:51:59.788Z,97530.06
2023-05-15T11:53:06.917Z,97525.00
2023-05-15T11:54:11.644Z,97523.75
2023-05-15T11:55:15.341Z,97521.72
2023-05-15T11:56:22.803Z,97526.78
2023-05-15T11:57:24.634Z,97528.22
2023-05-15T11:58:27.941Z,97519.09
2023-05-15T11:59:31.984Z,97523.13
2023-05-15T12:00:33.868Z,97526.00
2023-05-15T12:01:41.193Z,97520.88
2023-05-15T12:02:43.129Z,97516.63
2023-05-15T12:03:48.314Z,97515.63
2023-05-15T12:04:50.515Z,97525.34
2023-05-15T12:05:59.677Z,97516.25
2023-05-15T12:07:03.777Z,97515.63
2023-05-15T12:08:10.569Z,97510.16
2023-05-15T12:09:17.017Z,97502.84
2023-05-15T12:10:20.212Z,97502.25
2023-05-15T12:11:23.463Z,97509.94
2023-05-15T12:12:27.657Z,97510.50
2023-05-15T12:13:31.364Z,97518.75
2023-05-15T12:14:34.590Z,97510.56
2023-05-15T12:15:37.929Z,97525.00
2023-05-15T12:16:40.852Z,97524.59
2023-05-15T12:17:45.222Z,97517.47
2023-05-15T12:18:48.526Z,97519.06
2023-05-15T12:19:51.582Z,97511.50
2023-05-15T12:20:55.491Z,97505.94
2023-05-15T12:21:58.295Z,97501.84
2023-05-15T12:23:00.129Z,97498.56
2023-05-15T12:24:08.237Z,97504.25
2023-05-15T12:25:12.234Z,97515.66
2023-05-15T12:26:16.707Z,97515.25
2023-05-15T12:27:18.784Z,97521.00
2023-05-15T12:28:22.000Z,97515.34
2023-05-15T12:29:25.073Z,97511.09